sensor_id;sensor_type;location;lat;lon;timestamp;P1;durP1;ratioP1;P2;durP2;ratioP2
28335;SDS011;15592;53.656;7.276;2023-09-30T00:00:57;9.02;;;2.40;;
28335;SDS011;15592;53.656;7.276;2023-09-30T00:03:22;12.80;;;2.80;;
28335;SDS011;15592;53.656;7.276;2023-09-30T00:05:48;10.35;;;2.00;;
28335;SDS011;15592;53.656;7.276;2023-09-30T00:08:14;10.52;;;2.38;;
28335;SDS011;15592;53.656;7.276;2023-09-30T00:10:40;8.98;;;1.92;;
28335;SDS011;15592;53.656;7.276;2023-09-30T00:13:05;12.35;;;2.47;;
28335;SDS011;15592;53.656;7.276;2023-09-30T00:15:34;7.22;;;2.05;;
28335;SDS011;15592;53.656;7.276;2023-09-30T00:18:00;6.57;;;2.15;;
28335;SDS011;15592;53.656;7.276;2023-09-30T00:20:29;16.48;;;2.85;;
28335;SDS011;15592;53.656;7.276;2023-09-30T00:22:54;8.75;;;2.05;;
28335;SDS011;15592;53.656;7.276;2023-09-30T00:25:20;10.30;;;2.20;;
28335;SDS011;15592;53.656;7.276;2023-09-30T00:27:46;9.13;;;2.15;;
28335;SDS011;15592;53.656;7.276;2023-09-30T00:30:12;7.20;;;1.90;;
28335;SDS011;15592;53.656;7.276;2023-09-30T00:32:38;12.70;;;2.00;;
28335;SDS011;15592;53.656;7.276;2023-09-30T00:35:04;7.95;;;1.95;;
28335;SDS011;15592;53.656;7.276;2023-09-30T00:37:36;10.30;;;2.47;;
28335;SDS011;15592;53.656;7.276;2023-09-30T00:40:05;6.88;;;1.92;;
28335;SDS011;15592;53.656;7.276;2023-09-30T00:42:32;7.22;;;2.03;;
28335;SDS011;15592;53.656;7.276;2023-09-30T00:44:57;9.90;;;2.38;;
28335;SDS011;15592;53.656;7.276;2023-09-30T00:47:23;7.07;;;2.20;;
28335;SDS011;15592;53.656;7.276;2023-09-30T00:49:51;8.88;;;2.25;;
28335;SDS011;15592;53.656;7.276;2023-09-30T00:52:18;11.52;;;2.22;;
28335;SDS011;15592;53.656;7.276;2023-09-30T00:54:45;8.77;;;2.30;;
28335;SDS011;15592;53.656;7.276;2023-09-30T00:57:12;11.75;;;2.13;;
28335;SDS011;15592;53.656;7.276;2023-09-30T00:59:38;10.52;;;2.30;;
28335;SDS011;15592;53.656;7.276;2023-09-30T01:02:05;11.43;;;2.45;;
28335;SDS011;15592;53.656;7.276;2023-09-30T01:04:31;14.20;;;2.97;;
28335;SDS011;15592;53.656;7.276;2023-09-30T01:06:57;7.25;;;1.95;;
28335;SDS011;15592;53.656;7.276;2023-09-30T01:09:23;6.20;;;1.42;;
28335;SDS011;15592;53.656;7.276;2023-09-30T01:11:49;6.20;;;1.70;;
28335;SDS011;15592;53.656;7.276;2023-09-30T01:14:25;11.07;;;2.33;;
28335;SDS011;15592;53.656;7.276;2023-09-30T01:16:51;5.88;;;1.67;;
28335;SDS011;15592;53.656;7.276;2023-09-30T01:19:18;7.68;;;1.67;;
28335;SDS011;15592;53.656;7.276;2023-09-30T01:21:44;9.18;;;2.08;;
28335;SDS011;15592;53.656;7.276;2023-09-30T01:24:14;8.52;;;2.03;;
28335;SDS011;15592;53.656;7.276;2023-09-30T01:26:40;8.98;;;2.05;;
28335;SDS011;15592;53.656;7.276;2023-09-30T01:29:07;8.00;;;1.95;;
28335;SDS011;15592;53.656;7.276;2023-09-30T01:31:36;7.38;;;1.60;;
28335;SDS011;15592;53.656;7.276;2023-09-30T01:34:03;9.20;;;2.13;;
28335;SDS011;15592;53.656;7.276;2023-09-30T01:36:29;6.75;;;1.98;;
28335;SDS011;15592;53.656;7.276;2023-09-30T01:38:55;5.57;;;1.77;;
28335;SDS011;15592;53.656;7.276;2023-09-30T01:41:21;4.90;;;1.50;;
28335;SDS011;15592;53.656;7.276;2023-09-30T01:43:47;6.85;;;1.83;;
28335;SDS011;15592;53.656;7.276;2023-09-30T01:46:13;7.25;;;2.08;;
28335;SDS011;15592;53.656;7.276;2023-09-30T01:48:39;7.88;;;1.85;;
28335;SDS011;15592;53.656;7.276;2023-09-30T01:51:04;6.03;;;1.83;;
28335;SDS011;15592;53.656;7.276;2023-09-30T01:53:31;8.60;;;2.03;;
28335;SDS011;15592;53.656;7.276;2023-09-30T01:55:57;10.02;;;2.38;;
28335;SDS011;15592;53.656;7.276;2023-09-30T01:58:23;7.55;;;1.90;;
28335;SDS011;15592;53.656;7.276;2023-09-30T02:00:49;7.25;;;2.35;;
28335;SDS011;15592;53.656;7.276;2023-09-30T02:03:15;6.25;;;1.75;;
28335;SDS011;15592;53.656;7.276;2023-09-30T02:05:42;4.07;;;1.60;;
28335;SDS011;15592;53.656;7.276;2023-09-30T02:08:08;4.10;;;1.27;;
28335;SDS011;15592;53.656;7.276;2023-09-30T02:10:33;5.50;;;1.50;;
28335;SDS011;15592;53.656;7.276;2023-09-30T02:12:59;4.38;;;1.50;;
28335;SDS011;15592;53.656;7.276;2023-09-30T02:15:25;3.55;;;1.10;;
28335;SDS011;15592;53.656;7.276;2023-09-30T02:17:51;7.30;;;1.80;;
28335;SDS011;15592;53.656;7.276;2023-09-30T02:20:17;7.28;;;1.70;;
28335;SDS011;15592;53.656;7.276;2023-09-30T02:22:47;5.90;;;1.90;;
28335;SDS011;15592;53.656;7.276;2023-09-30T02:25:14;5.25;;;1.35;;
28335;SDS011;15592;53.656;7.276;2023-09-30T02:27:40;4.90;;;1.83;;
28335;SDS011;15592;53.656;7.276;2023-09-30T02:30:07;2.40;;;1.00;;
28335;SDS011;15592;53.656;7.276;2023-09-30T02:32:34;1.77;;;0.90;;
28335;SDS011;15592;53.656;7.276;2023-09-30T02:34:59;2.92;;;1.10;;
28335;SDS011;15592;53.656;7.276;2023-09-30T02:37:25;6.15;;;1.27;;
28335;SDS011;15592;53.656;7.276;2023-09-30T02:39:51;6.40;;;1.83;;
28335;SDS011;15592;53.656;7.276;2023-09-30T02:42:16;5.82;;;1.52;;
28335;SDS011;15592;53.656;7.276;2023-09-30T02:44:42;3.75;;;1.33;;
28335;SDS011;15592;53.656;7.276;2023-09-30T02:47:08;4.68;;;1.67;;
28335;SDS011;15592;53.656;7.276;2023-09-30T02:49:33;5.00;;;1.20;;
28335;SDS011;15592;53.656;7.276;2023-09-30T02:51:59;5.95;;;1.42;;
28335;SDS011;15592;53.656;7.276;2023-09-30T02:54:25;5.38;;;1.63;;
28335;SDS011;15592;53.656;7.276;2023-09-30T02:56:51;4.30;;;1.40;;
28335;SDS011;15592;53.656;7.276;2023-09-30T02:59:17;5.43;;;1.27;;
28335;SDS011;15592;53.656;7.276;2023-09-30T03:01:43;4.68;;;1.30;;
28335;SDS011;15592;53.656;7.276;2023-09-30T03:04:09;5.22;;;1.70;;
28335;SDS011;15592;53.656;7.276;2023-09-30T03:06:37;4.47;;;1.42;;
28335;SDS011;15592;53.656;7.276;2023-09-30T03:09:04;6.18;;;1.40;;
28335;SDS011;15592;53.656;7.276;2023-09-30T03:11:30;6.00;;;1.63;;
28335;SDS011;15592;53.656;7.276;2023-09-30T03:13:57;5.80;;;1.63;;
28335;SDS011;15592;53.656;7.276;2023-09-30T03:16:23;7.57;;;1.80;;
28335;SDS011;15592;53.656;7.276;2023-09-30T03:18:49;8.02;;;1.83;;
28335;SDS011;15592;53.656;7.276;2023-09-30T03:21:15;6.75;;;2.30;;
28335;SDS011;15592;53.656;7.276;2023-09-30T03:23:42;4.80;;;1.73;;
28335;SDS011;15592;53.656;7.276;2023-09-30T03:26:08;8.80;;;2.40;;
28335;SDS011;15592;53.656;7.276;2023-09-30T03:28:38;5.68;;;2.15;;
28335;SDS011;15592;53.656;7.276;2023-09-30T03:31:04;5.68;;;2.20;;
28335;SDS011;15592;53.656;7.276;2023-09-30T03:33:32;4.05;;;1.80;;
28335;SDS011;15592;53.656;7.276;2023-09-30T03:35:57;7.18;;;1.98;;
28335;SDS011;15592;53.656;7.276;2023-09-30T03:38:23;8.93;;;2.25;;
28335;SDS011;15592;53.656;7.276;2023-09-30T03:40:50;7.90;;;2.35;;
28335;SDS011;15592;53.656;7.276;2023-09-30T03:43:18;7.95;;;1.80;;
28335;SDS011;15592;53.656;7.276;2023-09-30T03:45:46;7.82;;;2.70;;
28335;SDS011;15592;53.656;7.276;2023-09-30T03:48:11;8.25;;;3.05;;
28335;SDS011;15592;53.656;7.276;2023-09-30T03:50:37;8.32;;;2.58;;
28335;SDS011;15592;53.656;7.276;2023-09-30T03:53:03;8.30;;;2.25;;
28335;SDS011;15592;53.656;7.276;2023-09-30T03:55:30;5.97;;;1.83;;
28335;SDS011;15592;53.656;7.276;2023-09-30T03:57:57;5.65;;;2.30;;
28335;SDS011;15592;53.656;7.276;2023-09-30T04:00:23;6.72;;;2.05;;
28335;SDS011;15592;53.656;7.276;2023-09-30T04:02:49;6.10;;;2.45;;
28335;SDS011;15592;53.656;7.276;2023-09-30T04:05:19;5.72;;;2.30;;
28335;SDS011;15592;53.656;7.276;2023-09-30T04:10:14;9.07;;;2.63;;
28335;SDS011;15592;53.656;7.276;2023-09-30T04:12:40;8.25;;;2.70;;
28335;SDS011;15592;53.656;7.276;2023-09-30T04:15:06;10.35;;;2.67;;
28335;SDS011;15592;53.656;7.276;2023-09-30T04:17:32;6.43;;;2.80;;
28335;SDS011;15592;53.656;7.276;2023-09-30T04:19:58;5.72;;;2.38;;
28335;SDS011;15592;53.656;7.276;2023-09-30T04:22:24;8.95;;;2.45;;
28335;SDS011;15592;53.656;7.276;2023-09-30T04:24:50;5.93;;;2.45;;
28335;SDS011;15592;53.656;7.276;2023-09-30T04:27:16;4.45;;;2.17;;
28335;SDS011;15592;53.656;7.276;2023-09-30T04:29:42;6.55;;;1.98;;
28335;SDS011;15592;53.656;7.276;2023-09-30T04:32:08;7.53;;;2.50;;
28335;SDS011;15592;53.656;7.276;2023-09-30T04:34:34;5.93;;;2.13;;
28335;SDS011;15592;53.656;7.276;2023-09-30T04:37:00;5.10;;;2.10;;
28335;SDS011;15592;53.656;7.276;2023-09-30T04:39:27;5.30;;;2.50;;
28335;SDS011;15592;53.656;7.276;2023-09-30T04:41:52;7.82;;;1.98;;
28335;SDS011;15592;53.656;7.276;2023-09-30T04:44:19;8.13;;;2.47;;
28335;SDS011;15592;53.656;7.276;2023-09-30T04:46:46;3.55;;;1.88;;
28335;SDS011;15592;53.656;7.276;2023-09-30T04:49:15;8.43;;;2.58;;
28335;SDS011;15592;53.656;7.276;2023-09-30T04:54:07;8.45;;;2.45;;
28335;SDS011;15592;53.656;7.276;2023-09-30T04:56:36;6.95;;;2.53;;
28335;SDS011;15592;53.656;7.276;2023-09-30T05:01:29;9.70;;;2.65;;
28335;SDS011;15592;53.656;7.276;2023-09-30T05:03:55;8.63;;;2.80;;
28335;SDS011;15592;53.656;7.276;2023-09-30T05:06:20;6.13;;;2.55;;
28335;SDS011;15592;53.656;7.276;2023-09-30T05:08:46;7.63;;;2.30;;
28335;SDS011;15592;53.656;7.276;2023-09-30T05:11:13;6.10;;;2.03;;
28335;SDS011;15592;53.656;7.276;2023-09-30T05:13:39;13.40;;;2.92;;
28335;SDS011;15592;53.656;7.276;2023-09-30T05:16:04;7.45;;;2.20;;
28335;SDS011;15592;53.656;7.276;2023-09-30T05:18:32;6.85;;;2.20;;
28335;SDS011;15592;53.656;7.276;2023-09-30T05:20:58;4.18;;;2.25;;
28335;SDS011;15592;53.656;7.276;2023-09-30T05:23:24;8.50;;;2.78;;
28335;SDS011;15592;53.656;7.276;2023-09-30T05:25:50;9.85;;;2.83;;
28335;SDS011;15592;53.656;7.276;2023-09-30T05:28:16;7.53;;;2.75;;
28335;SDS011;15592;53.656;7.276;2023-09-30T05:30:42;9.45;;;2.47;;
28335;SDS011;15592;53.656;7.276;2023-09-30T05:33:08;10.63;;;3.10;;
28335;SDS011;15592;53.656;7.276;2023-09-30T05:35:39;9.70;;;2.60;;
28335;SDS011;15592;53.656;7.276;2023-09-30T05:38:08;9.70;;;3.28;;
28335;SDS011;15592;53.656;7.276;2023-09-30T05:40:34;11.35;;;3.40;;
28335;SDS011;15592;53.656;7.276;2023-09-30T05:42:59;8.32;;;2.90;;
28335;SDS011;15592;53.656;7.276;2023-09-30T05:45:26;8.30;;;2.85;;
28335;SDS011;15592;53.656;7.276;2023-09-30T05:47:53;7.13;;;2.80;;
28335;SDS011;15592;53.656;7.276;2023-09-30T05:50:21;8.00;;;2.47;;
28335;SDS011;15592;53.656;7.276;2023-09-30T05:52:51;10.40;;;2.88;;
28335;SDS011;15592;53.656;7.276;2023-09-30T05:55:18;7.97;;;3.30;;
28335;SDS011;15592;53.656;7.276;2023-09-30T05:57:49;10.27;;;2.78;;
28335;SDS011;15592;53.656;7.276;2023-09-30T06:00:15;8.02;;;2.40;;
28335;SDS011;15592;53.656;7.276;2023-09-30T06:02:55;6.75;;;2.65;;
28335;SDS011;15592;53.656;7.276;2023-09-30T06:05:24;6.53;;;2.70;;
28335;SDS011;15592;53.656;7.276;2023-09-30T06:07:55;11.05;;;2.72;;
28335;SDS011;15592;53.656;7.276;2023-09-30T06:10:20;9.85;;;3.05;;
28335;SDS011;15592;53.656;7.276;2023-09-30T06:12:50;9.20;;;3.03;;
28335;SDS011;15592;53.656;7.276;2023-09-30T06:15:19;4.72;;;2.08;;
28335;SDS011;15592;53.656;7.276;2023-09-30T06:17:49;6.03;;;2.47;;
28335;SDS011;15592;53.656;7.276;2023-09-30T06:20:17;6.85;;;2.15;;
28335;SDS011;15592;53.656;7.276;2023-09-30T06:22:43;8.48;;;2.97;;
28335;SDS011;15592;53.656;7.276;2023-09-30T06:25:14;8.52;;;2.65;;
28335;SDS011;15592;53.656;7.276;2023-09-30T06:27:44;6.90;;;2.60;;
28335;SDS011;15592;53.656;7.276;2023-09-30T06:30:11;12.32;;;3.17;;
28335;SDS011;15592;53.656;7.276;2023-09-30T06:32:38;7.00;;;2.20;;
28335;SDS011;15592;53.656;7.276;2023-09-30T06:35:05;6.63;;;2.53;;
28335;SDS011;15592;53.656;7.276;2023-09-30T06:37:32;6.82;;;2.30;;
28335;SDS011;15592;53.656;7.276;2023-09-30T06:39:57;7.82;;;2.38;;
28335;SDS011;15592;53.656;7.276;2023-09-30T06:42:26;4.85;;;2.15;;
28335;SDS011;15592;53.656;7.276;2023-09-30T06:44:52;6.68;;;2.17;;
28335;SDS011;15592;53.656;7.276;2023-09-30T06:47:18;9.38;;;2.42;;
28335;SDS011;15592;53.656;7.276;2023-09-30T06:49:45;9.82;;;3.08;;
28335;SDS011;15592;53.656;7.276;2023-09-30T06:52:11;6.47;;;2.78;;
28335;SDS011;15592;53.656;7.276;2023-09-30T06:54:38;7.63;;;2.67;;
28335;SDS011;15592;53.656;7.276;2023-09-30T06:57:04;8.70;;;2.65;;
28335;SDS011;15592;53.656;7.276;2023-09-30T06:59:29;6.10;;;2.15;;
28335;SDS011;15592;53.656;7.276;2023-09-30T07:01:57;8.05;;;2.33;;
28335;SDS011;15592;53.656;7.276;2023-09-30T07:04:23;6.20;;;2.45;;
28335;SDS011;15592;53.656;7.276;2023-09-30T07:06:48;6.05;;;2.15;;
28335;SDS011;15592;53.656;7.276;2023-09-30T07:09:14;8.75;;;2.72;;
28335;SDS011;15592;53.656;7.276;2023-09-30T07:11:40;6.78;;;2.50;;
28335;SDS011;15592;53.656;7.276;2023-09-30T07:14:07;7.40;;;2.97;;
28335;SDS011;15592;53.656;7.276;2023-09-30T07:16:33;8.02;;;2.58;;
28335;SDS011;15592;53.656;7.276;2023-09-30T07:18:59;5.25;;;2.15;;
28335;SDS011;15592;53.656;7.276;2023-09-30T07:21:25;7.25;;;2.70;;
28335;SDS011;15592;53.656;7.276;2023-09-30T07:23:51;9.13;;;3.15;;
28335;SDS011;15592;53.656;7.276;2023-09-30T07:26:17;6.47;;;2.13;;
28335;SDS011;15592;53.656;7.276;2023-09-30T07:31:13;11.38;;;2.80;;
28335;SDS011;15592;53.656;7.276;2023-09-30T07:33:38;11.75;;;2.92;;
28335;SDS011;15592;53.656;7.276;2023-09-30T07:36:04;9.38;;;2.90;;
28335;SDS011;15592;53.656;7.276;2023-09-30T07:38:30;9.68;;;2.80;;
28335;SDS011;15592;53.656;7.276;2023-09-30T07:40:55;6.90;;;2.65;;
28335;SDS011;15592;53.656;7.276;2023-09-30T07:43:21;9.73;;;2.70;;
28335;SDS011;15592;53.656;7.276;2023-09-30T07:45:47;5.28;;;2.47;;
28335;SDS011;15592;53.656;7.276;2023-09-30T07:48:13;10.93;;;2.60;;
28335;SDS011;15592;53.656;7.276;2023-09-30T07:50:39;10.38;;;2.75;;
28335;SDS011;15592;53.656;7.276;2023-09-30T07:53:05;7.20;;;2.45;;
28335;SDS011;15592;53.656;7.276;2023-09-30T07:55:31;9.95;;;2.75;;
28335;SDS011;15592;53.656;7.276;2023-09-30T07:57:57;9.85;;;2.58;;
28335;SDS011;15592;53.656;7.276;2023-09-30T08:00:24;10.45;;;2.80;;
28335;SDS011;15592;53.656;7.276;2023-09-30T08:02:50;11.90;;;3.13;;
28335;SDS011;15592;53.656;7.276;2023-09-30T08:05:16;8.52;;;2.28;;
28335;SDS011;15592;53.656;7.276;2023-09-30T08:07:42;5.47;;;2.50;;
28335;SDS011;15592;53.656;7.276;2023-09-30T08:10:08;9.20;;;2.95;;
28335;SDS011;15592;53.656;7.276;2023-09-30T08:12:38;7.90;;;2.38;;
28335;SDS011;15592;53.656;7.276;2023-09-30T08:15:04;8.27;;;2.80;;
28335;SDS011;15592;53.656;7.276;2023-09-30T08:17:31;9.75;;;2.60;;
28335;SDS011;15592;53.656;7.276;2023-09-30T08:19:57;7.45;;;2.22;;
28335;SDS011;15592;53.656;7.276;2023-09-30T08:22:22;8.43;;;2.55;;
28335;SDS011;15592;53.656;7.276;2023-09-30T08:24:52;9.75;;;2.85;;
28335;SDS011;15592;53.656;7.276;2023-09-30T08:27:21;9.65;;;2.50;;
28335;SDS011;15592;53.656;7.276;2023-09-30T08:29:49;7.10;;;3.13;;
28335;SDS011;15592;53.656;7.276;2023-09-30T08:32:14;6.25;;;2.63;;
28335;SDS011;15592;53.656;7.276;2023-09-30T08:34:40;8.35;;;2.42;;
28335;SDS011;15592;53.656;7.276;2023-09-30T08:37:05;8.52;;;2.80;;
28335;SDS011;15592;53.656;7.276;2023-09-30T08:39:31;6.68;;;2.33;;
28335;SDS011;15592;53.656;7.276;2023-09-30T08:41:57;9.40;;;2.83;;
28335;SDS011;15592;53.656;7.276;2023-09-30T08:44:23;8.10;;;1.77;;
28335;SDS011;15592;53.656;7.276;2023-09-30T08:46:49;8.65;;;2.47;;
28335;SDS011;15592;53.656;7.276;2023-09-30T08:49:17;10.95;;;2.63;;
28335;SDS011;15592;53.656;7.276;2023-09-30T08:51:44;6.13;;;1.90;;
28335;SDS011;15592;53.656;7.276;2023-09-30T08:54:14;5.72;;;2.05;;
28335;SDS011;15592;53.656;7.276;2023-09-30T08:56:39;11.13;;;2.42;;
28335;SDS011;15592;53.656;7.276;2023-09-30T08:59:09;8.52;;;2.03;;
28335;SDS011;15592;53.656;7.276;2023-09-30T09:01:35;7.82;;;2.15;;
28335;SDS011;15592;53.656;7.276;2023-09-30T09:04:01;7.88;;;2.20;;
28335;SDS011;15592;53.656;7.276;2023-09-30T09:06:28;6.63;;;1.88;;
28335;SDS011;15592;53.656;7.276;2023-09-30T09:08:55;8.85;;;1.90;;
28335;SDS011;15592;53.656;7.276;2023-09-30T09:11:38;7.30;;;2.30;;
28335;SDS011;15592;53.656;7.276;2023-09-30T09:14:04;10.10;;;2.38;;
28335;SDS011;15592;53.656;7.276;2023-09-30T09:16:32;10.32;;;2.17;;
28335;SDS011;15592;53.656;7.276;2023-09-30T09:18:58;11.82;;;2.92;;
28335;SDS011;15592;53.656;7.276;2023-09-30T09:21:24;9.63;;;2.28;;
28335;SDS011;15592;53.656;7.276;2023-09-30T09:23:53;17.48;;;2.85;;
28335;SDS011;15592;53.656;7.276;2023-09-30T09:26:29;13.13;;;2.50;;
28335;SDS011;15592;53.656;7.276;2023-09-30T09:29:03;15.48;;;3.10;;
28335;SDS011;15592;53.656;7.276;2023-09-30T09:31:33;13.77;;;3.08;;
28335;SDS011;15592;53.656;7.276;2023-09-30T09:34:00;11.60;;;2.67;;
28335;SDS011;15592;53.656;7.276;2023-09-30T09:36:42;12.23;;;2.78;;
28335;SDS011;15592;53.656;7.276;2023-09-30T09:39:08;9.52;;;2.30;;
28335;SDS011;15592;53.656;7.276;2023-09-30T09:41:51;7.50;;;2.80;;
28335;SDS011;15592;53.656;7.276;2023-09-30T09:44:19;8.85;;;2.50;;
28335;SDS011;15592;53.656;7.276;2023-09-30T09:46:47;8.85;;;2.70;;
28335;SDS011;15592;53.656;7.276;2023-09-30T09:49:14;5.82;;;2.00;;
28335;SDS011;15592;53.656;7.276;2023-09-30T09:51:42;6.03;;;2.25;;
28335;SDS011;15592;53.656;7.276;2023-09-30T09:54:09;8.90;;;2.13;;
28335;SDS011;15592;53.656;7.276;2023-09-30T09:56:35;8.60;;;2.00;;
28335;SDS011;15592;53.656;7.276;2023-09-30T09:59:02;6.05;;;2.00;;
28335;SDS011;15592;53.656;7.276;2023-09-30T10:01:29;5.22;;;1.70;;
28335;SDS011;15592;53.656;7.276;2023-09-30T10:03:56;9.60;;;2.30;;
28335;SDS011;15592;53.656;7.276;2023-09-30T10:06:22;9.48;;;2.58;;
28335;SDS011;15592;53.656;7.276;2023-09-30T10:08:49;9.98;;;2.15;;
28335;SDS011;15592;53.656;7.276;2023-09-30T10:11:17;7.13;;;2.15;;
28335;SDS011;15592;53.656;7.276;2023-09-30T10:13:53;8.65;;;2.00;;
28335;SDS011;15592;53.656;7.276;2023-09-30T10:19:15;13.45;;;3.05;;
28335;SDS011;15592;53.656;7.276;2023-09-30T10:29:40;7.05;;;2.03;;
28335;SDS011;15592;53.656;7.276;2023-09-30T10:32:07;6.22;;;1.90;;
28335;SDS011;15592;53.656;7.276;2023-09-30T10:34:33;10.13;;;2.50;;
28335;SDS011;15592;53.656;7.276;2023-09-30T10:37:08;12.20;;;2.08;;
28335;SDS011;15592;53.656;7.276;2023-09-30T10:39:57;5.75;;;2.10;;
28335;SDS011;15592;53.656;7.276;2023-09-30T10:53:17;4.95;;;1.80;;
28335;SDS011;15592;53.656;7.276;2023-09-30T10:55:50;7.90;;;2.00;;
28335;SDS011;15592;53.656;7.276;2023-09-30T10:58:19;7.50;;;2.22;;
28335;SDS011;15592;53.656;7.276;2023-09-30T11:00:52;6.38;;;1.67;;
28335;SDS011;15592;53.656;7.276;2023-09-30T11:03:21;5.63;;;1.83;;
28335;SDS011;15592;53.656;7.276;2023-09-30T11:05:48;7.70;;;1.88;;
28335;SDS011;15592;53.656;7.276;2023-09-30T11:08:15;5.07;;;1.90;;
28335;SDS011;15592;53.656;7.276;2023-09-30T11:10:48;6.88;;;2.00;;
28335;SDS011;15592;53.656;7.276;2023-09-30T11:13:15;8.70;;;2.35;;
28335;SDS011;15592;53.656;7.276;2023-09-30T11:15:42;7.80;;;1.80;;
28335;SDS011;15592;53.656;7.276;2023-09-30T11:18:15;8.32;;;1.58;;
28335;SDS011;15592;53.656;7.276;2023-09-30T11:20:41;9.30;;;2.08;;
28335;SDS011;15592;53.656;7.276;2023-09-30T11:23:08;10.90;;;2.20;;
28335;SDS011;15592;53.656;7.276;2023-09-30T11:25:35;7.50;;;1.70;;
28335;SDS011;15592;53.656;7.276;2023-09-30T11:28:15;9.57;;;2.35;;
28335;SDS011;15592;53.656;7.276;2023-09-30T11:33:27;6.30;;;1.90;;
28335;SDS011;15592;53.656;7.276;2023-09-30T11:38:27;9.25;;;2.30;;
28335;SDS011;15592;53.656;7.276;2023-09-30T11:41:03;9.25;;;2.85;;
28335;SDS011;15592;53.656;7.276;2023-09-30T11:43:31;9.23;;;2.30;;
28335;SDS011;15592;53.656;7.276;2023-09-30T11:46:11;8.43;;;2.33;;
28335;SDS011;15592;53.656;7.276;2023-09-30T11:48:39;6.78;;;1.63;;
28335;SDS011;15592;53.656;7.276;2023-09-30T11:51:21;8.10;;;2.42;;
28335;SDS011;15592;53.656;7.276;2023-09-30T11:53:49;6.40;;;1.73;;
28335;SDS011;15592;53.656;7.276;2023-09-30T11:56:15;8.75;;;2.45;;
28335;SDS011;15592;53.656;7.276;2023-09-30T11:58:41;9.90;;;2.70;;
28335;SDS011;15592;53.656;7.276;2023-09-30T12:01:07;7.45;;;2.13;;
28335;SDS011;15592;53.656;7.276;2023-09-30T12:03:36;12.23;;;2.72;;
28335;SDS011;15592;53.656;7.276;2023-09-30T12:06:05;6.32;;;2.03;;
28335;SDS011;15592;53.656;7.276;2023-09-30T12:08:31;12.55;;;2.60;;
28335;SDS011;15592;53.656;7.276;2023-09-30T12:10:57;8.55;;;2.08;;
28335;SDS011;15592;53.656;7.276;2023-09-30T12:13:24;9.05;;;1.80;;
28335;SDS011;15592;53.656;7.276;2023-09-30T12:15:51;7.10;;;1.52;;
28335;SDS011;15592;53.656;7.276;2023-09-30T12:18:18;5.25;;;1.60;;
28335;SDS011;15592;53.656;7.276;2023-09-30T12:20:48;5.05;;;1.52;;
28335;SDS011;15592;53.656;7.276;2023-09-30T12:23:14;7.32;;;1.60;;
28335;SDS011;15592;53.656;7.276;2023-09-30T12:25:40;4.40;;;1.73;;
28335;SDS011;15592;53.656;7.276;2023-09-30T12:28:07;6.15;;;1.80;;
28335;SDS011;15592;53.656;7.276;2023-09-30T12:30:33;8.13;;;1.90;;
28335;SDS011;15592;53.656;7.276;2023-09-30T12:32:59;4.03;;;1.25;;
28335;SDS011;15592;53.656;7.276;2023-09-30T12:35:24;5.30;;;1.75;;
28335;SDS011;15592;53.656;7.276;2023-09-30T12:37:50;7.72;;;2.28;;
28335;SDS011;15592;53.656;7.276;2023-09-30T12:40:15;7.63;;;1.73;;
28335;SDS011;15592;53.656;7.276;2023-09-30T12:42:42;7.47;;;2.05;;
28335;SDS011;15592;53.656;7.276;2023-09-30T12:45:08;5.95;;;1.60;;
28335;SDS011;15592;53.656;7.276;2023-09-30T12:47:34;4.38;;;1.90;;
28335;SDS011;15592;53.656;7.276;2023-09-30T12:50:00;8.02;;;1.80;;
28335;SDS011;15592;53.656;7.276;2023-09-30T12:52:26;8.00;;;2.25;;
28335;SDS011;15592;53.656;7.276;2023-09-30T12:54:51;8.43;;;2.13;;
28335;SDS011;15592;53.656;7.276;2023-09-30T12:57:17;6.72;;;1.70;;
28335;SDS011;15592;53.656;7.276;2023-09-30T12:59:43;8.07;;;1.98;;
28335;SDS011;15592;53.656;7.276;2023-09-30T13:02:14;7.05;;;2.03;;
28335;SDS011;15592;53.656;7.276;2023-09-30T13:04:40;6.47;;;1.83;;
28335;SDS011;15592;53.656;7.276;2023-09-30T13:07:09;6.75;;;2.05;;
28335;SDS011;15592;53.656;7.276;2023-09-30T13:09:41;6.30;;;1.88;;
28335;SDS011;15592;53.656;7.276;2023-09-30T13:12:07;9.80;;;2.42;;
28335;SDS011;15592;53.656;7.276;2023-09-30T13:14:33;4.38;;;1.70;;
28335;SDS011;15592;53.656;7.276;2023-09-30T13:16:59;8.27;;;1.80;;
28335;SDS011;15592;53.656;7.276;2023-09-30T13:19:26;10.20;;;2.03;;
28335;SDS011;15592;53.656;7.276;2023-09-30T13:21:52;6.18;;;1.83;;
28335;SDS011;15592;53.656;7.276;2023-09-30T13:24:21;7.03;;;1.80;;
28335;SDS011;15592;53.656;7.276;2023-09-30T13:26:47;7.88;;;2.40;;
28335;SDS011;15592;53.656;7.276;2023-09-30T13:29:15;7.25;;;2.08;;
28335;SDS011;15592;53.656;7.276;2023-09-30T13:31:41;9.20;;;2.47;;
28335;SDS011;15592;53.656;7.276;2023-09-30T13:34:08;9.85;;;1.77;;
28335;SDS011;15592;53.656;7.276;2023-09-30T13:36:34;7.53;;;2.00;;
28335;SDS011;15592;53.656;7.276;2023-09-30T13:38:59;12.43;;;2.35;;
28335;SDS011;15592;53.656;7.276;2023-09-30T13:41:26;8.93;;;2.15;;
28335;SDS011;15592;53.656;7.276;2023-09-30T13:43:52;5.55;;;1.58;;
28335;SDS011;15592;53.656;7.276;2023-09-30T13:46:18;6.75;;;1.67;;
28335;SDS011;15592;53.656;7.276;2023-09-30T13:48:43;7.47;;;1.85;;
28335;SDS011;15592;53.656;7.276;2023-09-30T13:51:09;10.52;;;2.00;;
28335;SDS011;15592;53.656;7.276;2023-09-30T13:53:38;6.85;;;2.03;;
28335;SDS011;15592;53.656;7.276;2023-09-30T13:56:04;9.10;;;2.35;;
28335;SDS011;15592;53.656;7.276;2023-09-30T13:58:32;6.25;;;1.58;;
28335;SDS011;15592;53.656;7.276;2023-09-30T14:00:57;9.38;;;2.17;;
28335;SDS011;15592;53.656;7.276;2023-09-30T14:03:23;5.28;;;1.55;;
28335;SDS011;15592;53.656;7.276;2023-09-30T14:05:51;7.93;;;2.20;;
28335;SDS011;15592;53.656;7.276;2023-09-30T14:08:18;6.53;;;1.60;;
28335;SDS011;15592;53.656;7.276;2023-09-30T14:10:44;6.57;;;1.50;;
28335;SDS011;15592;53.656;7.276;2023-09-30T14:13:10;6.18;;;1.80;;
28335;SDS011;15592;53.656;7.276;2023-09-30T14:15:35;7.13;;;1.90;;
28335;SDS011;15592;53.656;7.276;2023-09-30T14:18:01;9.02;;;2.15;;
28335;SDS011;15592;53.656;7.276;2023-09-30T14:20:31;12.82;;;2.22;;
28335;SDS011;15592;53.656;7.276;2023-09-30T14:22:58;10.32;;;1.85;;
28335;SDS011;15592;53.656;7.276;2023-09-30T14:25:24;6.32;;;1.90;;
28335;SDS011;15592;53.656;7.276;2023-09-30T14:27:50;7.32;;;1.85;;
28335;SDS011;15592;53.656;7.276;2023-09-30T14:30:15;12.63;;;2.42;;
28335;SDS011;15592;53.656;7.276;2023-09-30T14:32:41;7.03;;;1.90;;
28335;SDS011;15592;53.656;7.276;2023-09-30T14:35:08;7.25;;;1.90;;
28335;SDS011;15592;53.656;7.276;2023-09-30T14:37:34;6.05;;;2.10;;
28335;SDS011;15592;53.656;7.276;2023-09-30T14:40:01;6.93;;;1.98;;
28335;SDS011;15592;53.656;7.276;2023-09-30T14:42:30;6.50;;;1.83;;
28335;SDS011;15592;53.656;7.276;2023-09-30T14:44:56;5.32;;;1.67;;
28335;SDS011;15592;53.656;7.276;2023-09-30T14:47:22;5.90;;;1.67;;
28335;SDS011;15592;53.656;7.276;2023-09-30T14:49:48;6.63;;;1.63;;
28335;SDS011;15592;53.656;7.276;2023-09-30T14:52:14;6.90;;;1.60;;
28335;SDS011;15592;53.656;7.276;2023-09-30T14:54:40;4.80;;;1.42;;
28335;SDS011;15592;53.656;7.276;2023-09-30T14:57:06;4.38;;;1.73;;
28335;SDS011;15592;53.656;7.276;2023-09-30T14:59:33;3.90;;;1.52;;
28335;SDS011;15592;53.656;7.276;2023-09-30T15:01:59;6.22;;;1.80;;
28335;SDS011;15592;53.656;7.276;2023-09-30T15:04:25;5.93;;;1.80;;
28335;SDS011;15592;53.656;7.276;2023-09-30T15:06:51;4.32;;;1.73;;
28335;SDS011;15592;53.656;7.276;2023-09-30T15:09:16;3.22;;;1.50;;
28335;SDS011;15592;53.656;7.276;2023-09-30T15:11:43;5.38;;;1.83;;
28335;SDS011;15592;53.656;7.276;2023-09-30T15:14:08;8.90;;;2.00;;
28335;SDS011;15592;53.656;7.276;2023-09-30T15:16:34;6.38;;;1.95;;
28335;SDS011;15592;53.656;7.276;2023-09-30T15:19:00;8.70;;;2.38;;
28335;SDS011;15592;53.656;7.276;2023-09-30T15:21:25;3.55;;;1.60;;